Time;durP1;ratioP1;P1;durP2;ratioP2;P2;SDS_P1;SDS_P2;PMS_P1;PMS_P2;Temp;Humidity;BMP_temperature;BMP_pressure;BME280_temperature;BME280_humidity;BME280_pressure;Samples;Min_cycle;Max_cycle;Signal;HPM_P1;HPM_P2
2021/10/15 00:01:18;;;;;;;11.13;4.63;;;13.30;80.80;;;;;;5056581;28;20441;-72
2021/10/15 00:03:45;;;;;;;8.87;3.70;;;13.30;80.70;;;;;;5055958;28;20450;-72
2021/10/15 00:06:12;;;;;;;11.60;5.30;;;13.30;80.80;;;;;;5054882;28;20485;-72
2021/10/15 00:08:39;;;;;;;8.70;4.60;;;13.20;81.00;;;;;;5055061;28;20445;-72
2021/10/15 00:11:06;;;;;;;8.07;4.10;;;13.20;80.90;;;;;;5055246;28;20452;-72
2021/10/15 00:13:34;;;;;;;11.60;4.17;;;13.10;80.50;;;;;;5055174;28;20806;-72
2021/10/15 00:16:01;;;;;;;10.23;4.10;;;13.10;80.90;;;;;;5055417;28;20458;-72
2021/10/15 00:18:27;;;;;;;13.00;4.10;;;13.10;81.20;;;;;;5054910;28;20441;-72
2021/10/15 00:20:54;;;;;;;8.03;3.70;;;13.10;81.20;;;;;;5055092;28;20445;-72
2021/10/15 00:23:21;;;;;;;12.23;4.50;;;13.10;81.50;;;;;;5055068;28;20456;-72
2021/10/15 00:25:48;;;;;;;3.60;3.30;;;13.10;81.30;;;;;;5055414;28;20489;-72
2021/10/15 00:28:14;;;;;;;7.27;3.67;;;13.10;81.30;;;;;;5055014;28;20817;-72
2021/10/15 00:30:43;;;;;;;17.40;4.40;;;13.10;81.30;;;;;;5054933;28;20445;-72
2021/10/15 00:33:09;;;;;;;12.87;4.13;;;13.10;81.70;;;;;;5054844;28;20872;-72
2021/10/15 00:35:36;;;;;;;10.57;4.50;;;13.10;81.50;;;;;;5054835;28;20464;-72
2021/10/15 00:38:03;;;;;;;10.23;4.37;;;13.10;81.20;;;;;;5054444;28;20450;-72
2021/10/15 00:40:29;;;;;;;8.53;4.50;;;13.10;81.20;;;;;;5054646;28;20445;-72
2021/10/15 00:42:56;;;;;;;8.77;4.30;;;13.10;81.20;;;;;;5054712;28;20453;-72
2021/10/15 00:45:23;;;;;;;6.57;3.50;;;13.10;81.00;;;;;;5054513;28;20485;-71
2021/10/15 00:47:51;;;;;;;9.20;3.50;;;13.10;80.90;;;;;;5054669;28;20453;-72
2021/10/15 00:50:18;;;;;;;6.00;4.07;;;13.00;81.00;;;;;;5054203;28;20955;-72
2021/10/15 00:52:45;;;;;;;6.97;4.07;;;13.00;81.30;;;;;;5054761;28;20437;-71
2021/10/15 00:55:12;;;;;;;6.77;4.23;;;13.00;81.30;;;;;;5054020;28;20481;-71
2021/10/15 00:57:39;;;;;;;8.57;4.00;;;13.00;81.20;;;;;;5054074;28;20453;-71
2021/10/15 01:00:07;;;;;;;16.40;5.27;;;13.00;81.30;;;;;;5054333;28;20525;-71
2021/10/15 01:02:33;;;;;;;16.10;4.70;;;13.00;81.50;;;;;;5054263;28;20450;-71
2021/10/15 01:05:02;;;;;;;9.83;4.03;;;13.00;81.40;;;;;;5054393;28;20489;-71
2021/10/15 01:07:30;;;;;;;17.73;5.43;;;13.00;81.60;;;;;;5053915;28;20467;-72
2021/10/15 01:09:58;;;;;;;12.43;4.43;;;13.00;81.30;;;;;;5054135;28;20479;-72
2021/10/15 01:12:25;;;;;;;10.23;4.80;;;13.00;81.00;;;;;;5054042;28;20456;-72
2021/10/15 01:14:52;;;;;;;8.70;4.70;;;12.90;81.00;;;;;;5053320;28;20465;-72
2021/10/15 01:17:19;;;;;;;16.33;5.80;;;12.90;81.50;;;;;;5053750;28;20434;-72
2021/10/15 01:19:45;;;;;;;8.97;4.40;;;12.90;81.60;;;;;;5054018;28;20450;-72
2021/10/15 01:22:14;;;;;;;12.30;4.53;;;12.90;81.60;;;;;;5053881;28;20445;-72
2021/10/15 01:24:41;;;;;;;7.43;4.30;;;12.90;81.60;;;;;;5053789;28;20445;-71
2021/10/15 01:27:09;;;;;;;13.93;5.03;;;12.80;81.20;;;;;;5053771;28;20503;-72
2021/10/15 01:29:37;;;;;;;7.83;4.37;;;12.80;81.50;;;;;;5053764;28;20453;-72
2021/10/15 01:32:05;;;;;;;23.53;6.10;;;12.80;81.60;;;;;;5053772;28;20445;-72
2021/10/15 01:34:32;;;;;;;8.50;4.90;;;12.70;81.50;;;;;;5053584;28;20441;-72
2021/10/15 01:36:59;;;;;;;15.03;4.77;;;12.70;81.50;;;;;;5053780;28;20434;-72
2021/10/15 01:39:27;;;;;;;13.60;5.90;;;12.70;81.70;;;;;;5053641;28;20495;-72
2021/10/15 01:41:54;;;;;;;14.13;6.33;;;12.60;81.70;;;;;;5053586;28;20449;-72
2021/10/15 01:44:20;;;;;;;8.17;5.33;;;12.60;81.90;;;;;;5053562;28;20472;-72
2021/10/15 01:46:47;;;;;;;12.00;5.87;;;12.60;82.20;;;;;;5053444;28;20489;-71
2021/10/15 01:49:14;;;;;;;12.20;6.33;;;12.60;82.40;;;;;;5053504;28;20461;-71
2021/10/15 01:51:41;;;;;;;9.57;5.33;;;12.60;82.70;;;;;;5053249;28;20449;-72
2021/10/15 01:54:08;;;;;;;8.43;5.70;;;12.50;82.60;;;;;;5053747;28;20446;-72
2021/10/15 01:56:37;;;;;;;18.40;7.10;;;12.50;82.60;;;;;;5053070;28;21006;-71
2021/10/15 01:59:04;;;;;;;7.50;4.73;;;12.50;82.40;;;;;;5053404;28;20927;-71
2021/10/15 02:01:31;;;;;;;12.43;5.20;;;12.50;82.50;;;;;;5053538;28;20485;-71
2021/10/15 02:03:58;;;;;;;11.60;5.30;;;12.50;82.50;;;;;;5053435;28;20523;-71
2021/10/15 02:06:25;;;;;;;10.50;5.23;;;12.50;82.60;;;;;;5053219;28;20485;-72
2021/10/15 02:08:51;;;;;;;9.93;5.00;;;12.50;82.70;;;;;;5053366;28;20445;-72
2021/10/15 02:11:18;;;;;;;10.80;5.13;;;12.50;82.90;;;;;;5053329;28;20477;-72
2021/10/15 02:13:46;;;;;;;13.17;5.83;;;12.50;82.80;;;;;;5053251;28;20445;-72
2021/10/15 02:16:13;;;;;;;7.57;4.93;;;12.40;82.90;;;;;;5053257;28;20457;-72
2021/10/15 02:18:40;;;;;;;11.90;5.17;;;12.40;83.10;;;;;;5052870;28;20936;-72
2021/10/15 02:21:06;;;;;;;10.97;5.77;;;12.40;83.00;;;;;;5053263;28;20445;-72
2021/10/15 02:23:33;;;;;;;11.10;5.43;;;12.40;83.20;;;;;;5052826;28;20948;-72
2021/10/15 02:26:00;;;;;;;8.70;5.10;;;12.40;83.30;;;;;;5053820;28;20485;-71
2021/10/15 02:28:26;;;;;;;13.73;5.57;;;12.40;83.50;;;;;;5056965;28;20448;-71
2021/10/15 02:30:54;;;;;;;9.50;5.23;;;12.50;83.40;;;;;;5057308;28;20445;-72
2021/10/15 02:33:21;;;;;;;10.00;5.63;;;12.40;83.20;;;;;;5057097;28;20935;-72
2021/10/15 02:35:48;;;;;;;7.73;5.10;;;12.50;83.20;;;;;;5057029;28;20829;-72
2021/10/15 02:38:15;;;;;;;7.77;5.53;;;12.50;82.90;;;;;;5057046;28;20479;-72
2021/10/15 02:40:41;;;;;;;7.50;5.13;;;12.50;83.20;;;;;;5057195;28;20808;-72
2021/10/15 02:43:08;;;;;;;11.30;4.77;;;12.50;83.20;;;;;;5058027;28;20446;-72
2021/10/15 02:45:37;;;;;;;9.33;4.57;;;12.50;83.20;;;;;;5056850;28;20481;-71
2021/10/15 02:48:05;;;;;;;8.83;5.00;;;12.50;83.50;;;;;;5056859;28;20449;-72
2021/10/15 02:50:32;;;;;;;9.17;5.50;;;12.50;83.10;;;;;;5056483;28;20532;-72
2021/10/15 02:52:59;;;;;;;10.83;6.20;;;12.40;82.90;;;;;;5056814;28;20460;-72
2021/10/15 02:55:25;;;;;;;11.60;5.27;;;12.40;83.30;;;;;;5056544;28;20485;-71
2021/10/15 02:57:52;;;;;;;10.97;5.37;;;12.40;83.50;;;;;;5056444;28;20452;-71
2021/10/15 03:00:19;;;;;;;10.80;5.40;;;12.50;83.80;;;;;;5056653;28;20449;-71
2021/10/15 03:02:45;;;;;;;11.60;5.13;;;12.40;83.40;;;;;;5056678;28;20444;-72
2021/10/15 03:05:13;;;;;;;9.37;5.50;;;12.50;83.40;;;;;;5056612;28;20833;-71
2021/10/15 03:07:40;;;;;;;13.10;4.80;;;12.50;83.20;;;;;;5056217;28;20457;-71
2021/10/15 03:10:08;;;;;;;9.10;5.37;;;12.50;83.00;;;;;;5056556;28;20441;-71
2021/10/15 03:12:35;;;;;;;7.90;5.13;;;12.50;83.20;;;;;;5056650;28;20444;-71
2021/10/15 03:15:02;;;;;;;8.40;5.03;;;12.40;83.00;;;;;;5056280;28;20465;-71
2021/10/15 03:17:29;;;;;;;7.17;5.30;;;12.50;83.20;;;;;;5056316;28;20445;-72
2021/10/15 03:19:55;;;;;;;10.40;5.47;;;12.50;83.20;;;;;;5056244;28;20480;-72
2021/10/15 03:22:23;;;;;;;12.63;5.20;;;12.50;83.10;;;;;;5056442;28;20452;-72
2021/10/15 03:24:50;;;;;;;8.33;4.97;;;12.50;83.20;;;;;;5056088;28;20465;-72
2021/10/15 03:27:17;;;;;;;7.60;5.23;;;12.50;83.20;;;;;;5056012;28;20488;-72
2021/10/15 03:29:44;;;;;;;18.57;8.13;;;12.50;83.40;;;;;;5055691;28;20449;-72
2021/10/15 03:32:10;;;;;;;10.87;5.87;;;12.50;83.50;;;;;;5055759;28;20928;-72
2021/10/15 03:34:37;;;;;;;9.70;5.43;;;12.50;83.30;;;;;;5055918;28;20457;-71
2021/10/15 03:37:04;;;;;;;11.47;5.67;;;12.50;83.60;;;;;;5055493;28;20456;-71
2021/10/15 03:39:32;;;;;;;8.17;5.53;;;12.40;83.40;;;;;;5055830;28;20452;-71
2021/10/15 03:41:59;;;;;;;15.03;5.70;;;12.40;83.80;;;;;;5055854;28;20453;-72
2021/10/15 03:44:26;;;;;;;10.27;5.80;;;12.40;84.10;;;;;;5055408;28;20828;-71
2021/10/15 03:46:52;;;;;;;8.63;5.07;;;12.50;83.80;;;;;;5055603;28;20485;-71
2021/10/15 03:49:19;;;;;;;7.93;5.33;;;12.50;83.90;;;;;;5055639;28;20449;-71
2021/10/15 03:51:46;;;;;;;20.40;5.80;;;12.50;85.00;;;;;;5055761;28;20425;-71
2021/10/15 03:54:12;;;;;;;11.37;6.57;;;12.50;84.20;;;;;;5055690;28;20441;-71
2021/10/15 03:56:40;;;;;;;7.47;5.00;;;12.50;84.00;;;;;;5055086;28;20473;-71
2021/10/15 03:59:07;;;;;;;14.53;6.10;;;12.60;84.20;;;;;;5055154;28;20450;-72
2021/10/15 04:01:34;;;;;;;6.90;5.47;;;12.60;84.20;;;;;;5055066;28;21005;-72
2021/10/15 04:04:01;;;;;;;8.50;5.23;;;12.60;83.60;;;;;;5055397;28;20456;-72
2021/10/15 04:06:27;;;;;;;8.27;4.57;;;12.60;84.20;;;;;;5054866;28;20481;-72
2021/10/15 04:08:54;;;;;;;10.03;5.60;;;12.60;83.50;;;;;;5054971;28;20448;-72
2021/10/15 04:11:21;;;;;;;11.70;5.63;;;12.60;83.70;;;;;;5055231;28;20430;-72
2021/10/15 04:13:49;;;;;;;6.83;5.23;;;12.60;83.70;;;;;;5054870;28;20452;-72
2021/10/15 04:16:16;;;;;;;8.33;4.93;;;12.60;83.70;;;;;;5055029;28;20473;-71
2021/10/15 04:18:43;;;;;;;8.43;4.53;;;12.60;84.10;;;;;;5054785;28;20456;-71
2021/10/15 04:21:09;;;;;;;9.70;4.80;;;12.60;84.30;;;;;;5054983;28;20450;-72
2021/10/15 04:23:36;;;;;;;8.60;4.80;;;12.60;84.30;;;;;;5054680;28;20967;-72
2021/10/15 04:26:03;;;;;;;7.83;4.93;;;12.60;84.40;;;;;;5055044;28;20572;-72
2021/10/15 04:28:30;;;;;;;3.50;3.20;;;12.60;84.90;;;;;;5054898;28;20438;-71
2021/10/15 04:30:58;;;;;;;9.17;5.23;;;12.70;86.20;;;;;;5054791;28;20446;-71
2021/10/15 04:33:25;;;;;;;11.93;5.60;;;12.80;85.00;;;;;;5054018;28;20478;-72
2021/10/15 04:35:51;;;;;;;6.10;5.40;;;12.90;84.40;;;;;;5054371;28;20705;-72
2021/10/15 04:38:18;;;;;;;9.67;6.83;;;12.90;83.30;;;;;;5054705;28;20449;-72
2021/10/15 04:40:45;;;;;;;12.43;5.70;;;12.90;83.10;;;;;;5054660;28;20456;-72
2021/10/15 04:43:12;;;;;;;9.13;5.33;;;12.80;83.00;;;;;;5054743;28;20453;-72
2021/10/15 04:45:39;;;;;;;6.97;5.23;;;12.80;83.10;;;;;;5054216;28;20813;-72
2021/10/15 04:48:07;;;;;;;10.70;5.90;;;12.80;83.10;;;;;;5054202;28;20512;-72
2021/10/15 04:50:36;;;;;;;7.50;5.30;;;12.80;83.00;;;;;;5054090;28;20449;-72
2021/10/15 04:53:04;;;;;;;9.10;5.60;;;12.80;82.80;;;;;;5054476;28;20560;-72
2021/10/15 04:55:31;;;;;;;8.83;5.30;;;12.80;82.80;;;;;;5053971;28;20481;-72
2021/10/15 04:57:57;;;;;;;8.03;4.90;;;12.80;82.90;;;;;;5054052;28;20936;-72
2021/10/15 05:00:24;;;;;;;9.73;5.20;;;12.80;83.10;;;;;;5054327;28;20448;-72
2021/10/15 05:02:52;;;;;;;10.10;5.20;;;12.80;83.40;;;;;;5054236;28;20446;-72
2021/10/15 05:08:16;;;;;;;13.13;5.40;;;12.80;83.40;;;;;;5051851;28;20579;-71
2021/10/15 05:10:45;;;;;;;14.33;6.50;;;12.80;83.60;;;;;;5054138;28;20430;-71
2021/10/15 05:13:14;;;;;;;7.60;4.73;;;12.80;83.50;;;;;;5054005;28;20429;-71
2021/10/15 05:15:44;;;;;;;8.80;4.80;;;12.80;83.50;;;;;;5054057;28;20501;-71
2021/10/15 05:18:12;;;;;;;7.67;3.97;;;12.80;83.70;;;;;;5053989;28;20461;-71
2021/10/15 05:20:40;;;;;;;7.93;5.07;;;12.80;83.70;;;;;;5053995;28;20430;-71
2021/10/15 05:23:07;;;;;;;13.63;6.10;;;12.80;83.60;;;;;;5053955;28;20434;-71
2021/10/15 05:25:34;;;;;;;7.50;4.50;;;12.80;83.60;;;;;;5054771;28;20523;-71
2021/10/15 05:28:01;;;;;;;8.87;5.57;;;12.80;83.40;;;;;;5053719;28;20845;-71
2021/10/15 05:30:28;;;;;;;9.57;5.00;;;12.70;83.40;;;;;;5053788;28;20433;-71
2021/10/15 05:32:55;;;;;;;7.83;4.80;;;12.70;83.70;;;;;;5053801;28;20450;-71
2021/10/15 05:35:21;;;;;;;5.33;4.60;;;12.70;83.70;;;;;;5054471;28;20810;-71
2021/10/15 05:37:50;;;;;;;6.13;4.90;;;12.80;84.80;;;;;;5053600;28;20899;-70
2021/10/15 05:40:16;;;;;;;6.07;4.70;;;12.80;83.50;;;;;;5053577;28;20445;-70
2021/10/15 05:42:47;;;;;;;9.83;5.37;;;12.80;83.50;;;;;;5053269;28;20935;-71
2021/10/15 05:45:14;;;;;;;6.90;5.40;;;12.80;83.50;;;;;;5053482;28;20473;-70
2021/10/15 05:47:41;;;;;;;9.90;4.40;;;12.80;83.30;;;;;;5053131;28;20882;-71
2021/10/15 05:50:09;;;;;;;8.10;5.23;;;12.70;83.30;;;;;;5053543;28;20507;-71
2021/10/15 05:52:39;;;;;;;8.30;5.50;;;12.70;83.10;;;;;;5053469;28;20446;-71
2021/10/15 05:55:20;;;;;;;7.40;4.30;;;12.80;83.50;;;;;;5053005;28;20493;-70
2021/10/15 06:00:33;;;;;;;7.20;5.10;;;12.80;83.70;;;;;;5027999;28;20515;-70
2021/10/15 06:03:02;;;;;;;13.73;5.80;;;12.80;83.50;;;;;;5053301;28;20445;-70
2021/10/15 06:16:25;;;;;;;12.47;4.67;;;12.80;83.90;;;;;;5053295;28;20468;-70
2021/10/15 06:18:56;;;;;;;13.80;5.60;;;12.90;84.30;;;;;;5052982;28;20911;-70
2021/10/15 06:21:23;;;;;;;8.60;5.03;;;12.90;84.60;;;;;;5053227;28;20838;-71
2021/10/15 06:23:50;;;;;;;10.83;4.90;;;12.80;84.60;;;;;;5053221;28;20440;-70
2021/10/15 06:26:18;;;;;;;17.73;5.50;;;12.80;84.80;;;;;;5053032;28;20832;-70
2021/10/15 06:28:45;;;;;;;18.23;5.27;;;12.80;85.00;;;;;;5053114;28;20457;-70
2021/10/15 06:31:12;;;;;;;10.07;5.30;;;12.90;85.10;;;;;;5053173;28;20430;-70
2021/10/15 06:33:38;;;;;;;9.37;5.10;;;12.90;84.70;;;;;;5053057;28;20899;-70
2021/10/15 06:36:05;;;;;;;12.07;5.33;;;12.90;85.60;;;;;;5053017;28;20469;-70
2021/10/15 06:38:32;;;;;;;9.00;5.20;;;12.90;85.60;;;;;;5053026;28;20446;-70
2021/10/15 06:40:59;;;;;;;6.43;5.27;;;12.90;85.00;;;;;;5053006;28;20445;-70
2021/10/15 06:43:27;;;;;;;8.93;5.50;;;12.90;85.10;;;;;;5052700;28;20434;-70
2021/10/15 06:45:54;;;;;;;17.57;6.40;;;12.90;85.20;;;;;;5052903;28;20476;-70
2021/10/15 06:48:21;;;;;;;6.93;5.60;;;12.90;85.50;;;;;;5053046;28;20481;-70
2021/10/15 06:50:48;;;;;;;5.90;4.60;;;12.90;85.60;;;;;;5052792;28;20421;-70
2021/10/15 06:53:15;;;;;;;8.17;5.07;;;12.80;85.90;;;;;;5052882;28;20472;-70
2021/10/15 06:55:42;;;;;;;8.93;4.97;;;12.70;86.30;;;;;;5052363;28;20473;-70
2021/10/15 06:58:08;;;;;;;7.73;4.87;;;12.70;87.00;;;;;;5052538;28;20927;-70
2021/10/15 07:00:37;;;;;;;8.47;4.97;;;12.70;87.30;;;;;;5052403;28;20953;-70
2021/10/15 07:03:12;;;;;;;8.17;4.60;;;12.60;87.60;;;;;;5052798;28;20453;-70
2021/10/15 07:05:39;;;;;;;10.07;5.27;;;12.60;88.10;;;;;;5052953;28;20460;-70
2021/10/15 07:08:06;;;;;;;8.33;4.97;;;12.60;88.20;;;;;;5052923;28;20470;-71
2021/10/15 07:10:32;;;;;;;11.27;4.83;;;12.60;88.60;;;;;;5052856;28;20791;-70
2021/10/15 07:12:59;;;;;;;15.87;5.20;;;12.60;88.50;;;;;;5054867;28;20440;-70
2021/10/15 07:15:26;;;;;;;8.30;4.70;;;12.60;88.90;;;;;;5056243;28;20469;-70
2021/10/15 07:17:54;;;;;;;11.10;6.43;;;12.70;89.30;;;;;;5056311;28;20434;-70
2021/10/15 07:20:23;;;;;;;9.90;5.40;;;12.70;89.80;;;;;;5056257;28;20440;-70
2021/10/15 07:22:50;;;;;;;12.27;4.90;;;12.70;89.30;;;;;;5056251;28;20441;-70
2021/10/15 07:25:16;;;;;;;9.40;5.67;;;12.80;89.70;;;;;;5056080;28;20833;-70
2021/10/15 07:27:43;;;;;;;8.47;5.50;;;12.80;89.70;;;;;;5056011;28;20470;-70
2021/10/15 07:30:11;;;;;;;8.80;6.03;;;12.80;89.40;;;;;;5055678;28;20895;-70
2021/10/15 07:32:37;;;;;;;8.70;5.57;;;12.80;89.70;;;;;;5056024;28;20433;-70
2021/10/15 07:35:07;;;;;;;8.80;5.40;;;12.80;89.10;;;;;;5055923;28;20497;-70
2021/10/15 07:37:36;;;;;;;6.07;5.03;;;12.80;89.40;;;;;;5055872;28;20446;-70
2021/10/15 07:40:03;;;;;;;9.03;5.27;;;12.80;89.50;;;;;;5055814;28;20492;-70
2021/10/15 07:42:30;;;;;;;8.93;5.43;;;12.70;89.70;;;;;;5055711;28;20503;-70
2021/10/15 07:44:57;;;;;;;7.63;6.13;;;12.70;89.80;;;;;;5055692;28;20465;-70
2021/10/15 07:47:23;;;;;;;10.87;5.20;;;12.70;90.00;;;;;;5055911;28;20465;-70
2021/10/15 07:49:50;;;;;;;13.40;9.03;;;12.80;90.00;;;;;;5055663;28;20438;-70
2021/10/15 07:52:18;;;;;;;6.93;5.23;;;12.80;89.80;;;;;;5055658;28;20487;-70
2021/10/15 07:54:45;;;;;;;6.07;4.63;;;12.90;90.00;;;;;;5055386;28;20457;-70
2021/10/15 07:57:13;;;;;;;10.90;5.50;;;12.90;89.60;;;;;;5055708;28;20422;-70
2021/10/15 07:59:40;;;;;;;8.13;5.93;;;13.00;90.10;;;;;;5055496;28;20487;-70
2021/10/15 08:02:07;;;;;;;10.10;6.10;;;13.10;89.40;;;;;;5055495;28;20512;-70
2021/10/15 08:04:35;;;;;;;11.47;6.27;;;13.10;90.00;;;;;;5055027;28;20904;-70
2021/10/15 08:07:03;;;;;;;10.37;6.20;;;13.10;89.90;;;;;;5055322;28;20449;-70
2021/10/15 08:09:31;;;;;;;13.00;7.40;;;13.10;89.80;;;;;;5055300;28;20469;-70
2021/10/15 08:11:58;;;;;;;7.90;6.07;;;13.00;89.60;;;;;;5055335;28;20794;-70
2021/10/15 08:14:25;;;;;;;11.00;6.97;;;13.10;90.20;;;;;;5055243;28;20813;-70
2021/10/15 08:16:52;;;;;;;8.53;6.27;;;13.20;90.30;;;;;;5055101;28;20472;-70
2021/10/15 08:19:19;;;;;;;8.00;6.00;;;13.30;90.10;;;;;;5055104;28;20515;-70
2021/10/15 08:21:46;;;;;;;9.50;7.10;;;13.30;90.10;;;;;;5055617;28;20477;-70
2021/10/15 08:24:14;;;;;;;10.20;6.23;;;13.30;90.20;;;;;;5053926;28;20501;-70
2021/10/15 08:26:42;;;;;;;10.73;6.70;;;13.30;90.50;;;;;;5054597;28;20978;-70
2021/10/15 08:29:09;;;;;;;11.70;6.33;;;13.30;90.50;;;;;;5055123;28;20507;-70
2021/10/15 08:31:36;;;;;;;9.07;6.50;;;13.30;90.70;;;;;;5054841;28;20531;-70
2021/10/15 08:34:07;;;;;;;8.50;6.20;;;13.40;90.70;;;;;;5055180;28;20426;-70
2021/10/15 08:36:34;;;;;;;10.33;7.53;;;13.40;90.60;;;;;;5054836;28;20470;-70
2021/10/15 08:39:01;;;;;;;9.70;6.83;;;13.50;90.40;;;;;;5054961;28;20418;-70
2021/10/15 08:41:27;;;;;;;12.70;7.30;;;13.50;90.20;;;;;;5054387;28;20453;-70
2021/10/15 08:43:58;;;;;;;10.67;7.13;;;13.50;90.50;;;;;;5054910;28;20434;-70
2021/10/15 08:46:25;;;;;;;10.83;7.97;;;13.50;90.60;;;;;;5054775;28;20552;-70
2021/10/15 08:48:53;;;;;;;9.67;7.33;;;13.60;90.80;;;;;;5054452;28;20493;-70
2021/10/15 08:51:21;;;;;;;14.13;7.90;;;13.50;90.50;;;;;;5054178;28;20438;-71
2021/10/15 08:53:52;;;;;;;15.00;6.80;;;13.50;90.90;;;;;;5054211;28;20434;-71
2021/10/15 08:56:20;;;;;;;11.53;7.77;;;13.60;91.00;;;;;;5054676;28;20568;-71
2021/10/15 08:58:51;;;;;;;9.10;7.80;;;13.60;90.70;;;;;;5054439;28;20426;-71
2021/10/15 09:01:19;;;;;;;9.80;7.13;;;13.60;90.90;;;;;;5054781;28;20849;-70
2021/10/15 09:03:46;;;;;;;13.80;8.27;;;13.70;90.90;;;;;;5053923;28;20434;-70
2021/10/15 09:06:13;;;;;;;9.07;7.57;;;13.70;91.00;;;;;;5054363;28;20461;-70
2021/10/15 09:08:50;;;;;;;15.30;9.27;;;13.70;91.20;;;;;;5054196;28;20462;-70
2021/10/15 09:11:31;;;;;;;17.53;8.80;;;13.80;91.30;;;;;;5054404;28;20464;-70
2021/10/15 09:14:10;;;;;;;10.37;8.37;;;13.90;91.00;;;;;;5054269;28;20438;-70
2021/10/15 09:17:10;;;;;;;13.10;8.37;;;13.90;91.40;;;;;;5054136;28;20475;-70
2021/10/15 09:19:40;;;;;;;13.40;9.17;;;13.90;92.10;;;;;;4973105;28;20473;-69
2021/10/15 09:22:12;;;;;;;15.27;9.70;;;13.90;92.80;;;;;;5037556;28;20852;-69
2021/10/15 09:24:41;;;;;;;11.83;9.90;;;13.80;93.30;;;;;;5053824;28;20430;-70
2021/10/15 09:27:23;;;;;;;13.13;10.83;;;13.80;93.90;;;;;;5053898;28;20434;-69
2021/10/15 09:29:52;;;;;;;16.37;11.00;;;13.70;94.20;;;;;;5053884;28;20445;-69
2021/10/15 09:32:24;;;;;;;16.93;11.10;;;13.60;94.90;;;;;;5053587;28;20433;-69
2021/10/15 09:34:51;;;;;;;17.13;11.10;;;13.50;95.30;;;;;;5053339;28;20453;-69
2021/10/15 09:37:20;;;;;;;14.73;12.83;;;13.50;96.00;;;;;;5053655;28;20513;-69
2021/10/15 09:39:48;;;;;;;20.33;14.90;;;13.40;96.30;;;;;;5053728;28;20431;-69
2021/10/15 09:42:33;;;;;;;19.07;14.30;;;13.40;96.70;;;;;;5053684;28;20445;-69
2021/10/15 09:45:14;;;;;;;16.83;12.70;;;13.40;97.10;;;;;;5053455;28;20473;-69
2021/10/15 09:47:44;;;;;;;17.80;12.73;;;13.40;97.20;;;;;;5053179;28;20970;-70
2021/10/15 09:50:11;;;;;;;15.37;11.50;;;13.30;97.50;;;;;;5053439;28;20441;-69
2021/10/15 09:52:42;;;;;;;13.43;11.90;;;13.30;98.20;;;;;;5053560;28;20454;-69
2021/10/15 09:55:15;;;;;;;12.63;11.13;;;13.30;98.10;;;;;;5053045;28;20556;-69
2021/10/15 09:57:44;;;;;;;14.13;10.70;;;13.40;98.40;;;;;;5053431;28;20842;-69
2021/10/15 10:00:13;;;;;;;15.27;11.23;;;13.50;98.50;;;;;;5053416;28;20479;-69
2021/10/15 10:02:42;;;;;;;13.70;12.30;;;13.60;98.40;;;;;;5053422;28;20445;-69
2021/10/15 10:05:12;;;;;;;14.63;11.80;;;13.80;98.20;;;;;;5053431;28;20473;-69
2021/10/15 10:07:40;;;;;;;11.90;10.57;;;13.90;98.00;;;;;;5053001;28;20434;-69
2021/10/15 10:10:09;;;;;;;16.23;11.80;;;14.10;97.70;;;;;;5052903;28;20838;-70
2021/10/15 10:12:38;;;;;;;15.10;10.83;;;14.10;97.50;;;;;;5053228;28;20431;-70
2021/10/15 10:15:07;;;;;;;13.73;9.57;;;14.20;97.20;;;;;;5053214;28;20470;-70
2021/10/15 10:17:41;;;;;;;11.17;9.97;;;14.30;96.80;;;;;;5052961;28;20445;-70
2021/10/15 10:20:15;;;;;;;13.40;10.23;;;14.30;96.60;;;;;;5053209;28;20468;-70
2021/10/15 10:22:48;;;;;;;11.17;9.50;;;14.40;96.20;;;;;;5053047;28;20846;-70
2021/10/15 10:25:22;;;;;;;11.60;10.43;;;14.30;96.20;;;;;;5053145;28;20473;-70
2021/10/15 10:27:49;;;;;;;11.53;10.33;;;14.30;96.40;;;;;;5053099;28;20430;-70
2021/10/15 10:30:34;;;;;;;11.20;10.10;;;14.30;96.40;;;;;;5053218;28;20433;-69
2021/10/15 10:33:02;;;;;;;12.83;9.60;;;14.30;96.40;;;;;;5053150;28;20529;-70
2021/10/15 10:35:31;;;;;;;12.77;10.93;;;14.20;96.50;;;;;;5052777;28;20496;-70
2021/10/15 10:38:30;;;;;;;12.13;10.20;;;14.20;96.80;;;;;;5053092;28;20438;-70
2021/10/15 10:41:14;;;;;;;9.70;8.37;;;14.30;97.00;;;;;;4972103;28;20895;-70
2021/10/15 10:44:12;;;;;;;9.87;8.87;;;14.50;97.20;;;;;;5044515;28;20452;-71
2021/10/15 10:46:39;;;;;;;10.40;6.60;;;14.80;97.30;;;;;;5053087;28;20587;-71
2021/10/15 10:49:20;;;;;;;5.90;5.30;;;15.10;96.50;;;;;;5056443;28;21018;-71
2021/10/15 10:52:08;;;;;;;5.82;4.50;;;15.40;95.50;;;;;;5055867;28;20440;-71
2021/10/15 10:54:35;;;;;;;3.60;3.30;;;15.80;94.10;;;;;;5056605;28;20266;-70
2021/10/15 10:57:14;;;;;;;3.70;3.30;;;16.00;92.90;;;;;;5056725;28;20426;-71
2021/10/15 10:59:41;;;;;;;4.33;2.60;;;16.10;92.00;;;;;;5056921;28;20424;-71
2021/10/15 11:02:16;;;;;;;3.03;2.20;;;16.20;91.30;;;;;;5056766;28;20440;-70
2021/10/15 11:04:57;;;;;;;4.93;2.50;;;16.20;90.20;;;;;;5056544;28;20433;-70
2021/10/15 11:07:30;;;;;;;2.53;1.50;;;16.10;90.10;;;;;;5056280;28;20775;-70
2021/10/15 11:10:04;;;;;;;2.20;1.43;;;16.00;88.80;;;;;;5056919;28;20489;-71
2021/10/15 11:13:00;;;;;;;3.03;1.30;;;15.90;89.50;;;;;;5056162;28;20914;-71
2021/10/15 11:15:33;;;;;;;3.17;1.47;;;15.80;89.80;;;;;;5056843;28;20807;-70
2021/10/15 11:18:00;;;;;;;2.10;1.37;;;15.80;89.70;;;;;;5056366;28;20922;-70
2021/10/15 11:20:29;;;;;;;2.90;0.87;;;16.00;90.20;;;;;;5056025;28;20970;-70
2021/10/15 11:23:00;;;;;;;4.03;1.20;;;16.50;90.10;;;;;;5056388;28;20429;-71
2021/10/15 11:25:29;;;;;;;2.87;2.00;;;16.90;86.10;;;;;;5056143;28;20469;-70
2021/10/15 11:27:58;;;;;;;2.83;1.10;;;17.20;84.80;;;;;;5055988;28;20449;-70
2021/10/15 11:30:27;;;;;;;3.80;1.37;;;17.40;84.60;;;;;;5055806;28;20430;-71
2021/10/15 11:32:55;;;;;;;4.17;1.20;;;17.50;82.40;;;;;;5056036;28;20429;-71
2021/10/15 11:35:23;;;;;;;3.20;1.17;;;17.60;82.00;;;;;;5055882;28;20581;-70
2021/10/15 11:38:01;;;;;;;7.03;1.50;;;17.70;81.60;;;;;;5055585;28;20445;-71
2021/10/15 11:40:32;;;;;;;6.53;1.43;;;17.80;81.30;;;;;;5055534;28;20430;-71
2021/10/15 11:43:09;;;;;;;2.77;1.30;;;18.00;81.20;;;;;;5055549;28;20900;-71
2021/10/15 11:45:37;;;;;;;5.83;1.00;;;18.10;80.30;;;;;;5055747;28;20975;-71
2021/10/15 11:48:07;;;;;;;2.97;1.10;;;18.30;77.10;;;;;;5055786;28;20434;-70
2021/10/15 11:50:40;;;;;;;2.60;1.20;;;18.50;75.60;;;;;;5055691;28;20435;-71
2021/10/15 11:53:09;;;;;;;2.30;0.87;;;18.70;75.60;;;;;;5055930;28;20425;-71
2021/10/15 11:55:38;;;;;;;3.00;0.97;;;18.80;74.00;;;;;;5055477;28;20485;-71
2021/10/15 11:58:23;;;;;;;5.33;1.10;;;18.80;73.10;;;;;;5055048;28;20426;-71
2021/10/15 12:00:58;;;;;;;4.70;0.90;;;18.90;73.60;;;;;;5055787;28;20429;-70
2021/10/15 12:03:29;;;;;;;1.53;0.77;;;19.00;73.40;;;;;;5055746;28;20799;-71
2021/10/15 12:05:56;;;;;;;2.50;1.10;;;19.10;71.30;;;;;;5055370;28;20458;-70
2021/10/15 12:08:25;;;;;;;2.50;1.03;;;19.30;69.80;;;;;;5055389;28;20428;-70
2021/10/15 12:10:52;;;;;;;2.20;0.70;;;19.30;68.10;;;;;;5055640;28;20603;-70
2021/10/15 12:13:19;;;;;;;1.93;0.77;;;19.50;67.70;;;;;;5055688;28;20427;-71
2021/10/15 12:15:46;;;;;;;3.23;1.07;;;19.70;67.20;;;;;;5055216;28;20465;-71
2021/10/15 12:18:13;;;;;;;1.80;0.70;;;20.00;67.20;;;;;;5056073;28;20824;-71
2021/10/15 12:20:39;;;;;;;3.27;1.00;;;20.70;64.10;;;;;;5055174;28;20820;-71
2021/10/15 12:23:07;;;;;;;2.90;0.90;;;21.10;61.20;;;;;;5055256;28;20449;-71
2021/10/15 12:25:36;;;;;;;3.77;1.10;;;21.10;60.00;;;;;;5054726;28;20862;-71
2021/10/15 12:28:13;;;;;;;2.00;0.90;;;20.70;58.10;;;;;;5055096;28;20442;-71
2021/10/15 12:30:40;;;;;;;3.83;1.20;;;20.50;59.50;;;;;;5055134;28;20428;-71
2021/10/15 12:33:14;;;;;;;2.87;0.73;;;20.40;61.10;;;;;;5054981;28;20422;-71
2021/10/15 12:35:40;;;;;;;2.67;0.87;;;20.40;61.60;;;;;;5054975;28;20509;-71
2021/10/15 12:38:07;;;;;;;3.63;0.70;;;20.30;61.20;;;;;;5054903;28;20433;-71
2021/10/15 12:40:40;;;;;;;2.10;0.70;;;20.60;61.80;;;;;;5055037;28;20423;-71
2021/10/15 12:43:16;;;;;;;2.33;0.73;;;21.70;60.80;;;;;;5055875;28;20480;-73
2021/10/15 12:45:55;;;;;;;2.80;1.20;;;22.40;57.70;;;;;;5055030;28;20472;-73
2021/10/15 12:48:24;;;;;;;1.73;0.83;;;22.80;56.40;;;;;;5054830;28;20488;-73
2021/10/15 12:51:01;;;;;;;3.00;0.90;;;22.80;55.10;;;;;;5055062;28;20931;-74
2021/10/15 12:53:34;;;;;;;2.13;1.00;;;22.70;54.70;;;;;;5057862;28;20436;-74
2021/10/15 12:56:02;;;;;;;1.97;0.80;;;22.70;52.90;;;;;;5054383;28;20473;-74
2021/10/15 12:58:31;;;;;;;2.43;0.83;;;22.80;52.60;;;;;;5054330;28;20974;-74
2021/10/15 13:01:00;;;;;;;2.40;1.13;;;23.10;52.80;;;;;;5054109;28;20900;-74
2021/10/15 13:03:28;;;;;;;2.13;0.80;;;23.90;52.00;;;;;;5054359;28;20465;-74
2021/10/15 13:05:56;;;;;;;2.37;0.93;;;25.00;49.90;;;;;;5053995;28;20836;-74